Time;durP1;ratioP1;P1;durP2;ratioP2;P2;SDS_P1;SDS_P2;PMS_P1;PMS_P2;Temp;Humidity;BMP_temperature;BMP_pressure;BME280_temperature;BME280_humidity;BME280_pressure;Samples;Min_cycle;Max_cycle;Signal;HPM_P1;HPM_P2
2023/06/08 00:02:11;;;;;;;0.07;0.07;;;12.10;99.90;;;;;;5078712;28;20229;-80
2023/06/08 00:04:40;;;;;;;0.10;0.10;;;12.20;99.90;;;;;;5064929;28;20446;-80
2023/06/08 00:07:08;;;;;;;0.10;0.10;;;12.30;99.90;;;;;;5073586;28;20194;-80
2023/06/08 00:09:38;;;;;;;0.10;0.10;;;12.30;99.90;;;;;;5064655;28;20527;-80
2023/06/08 00:12:05;;;;;;;0.00;0.00;;;12.10;99.90;;;;;;5050678;28;20458;-80
2023/06/08 00:14:31;;;;;;;0.03;0.03;;;12.40;99.90;;;;;;5051843;28;20463;-80
2023/06/08 00:16:57;;;;;;;0.00;0.00;;;12.30;99.90;;;;;;5057089;28;20451;-80
2023/06/08 00:19:23;;;;;;;0.10;0.10;;;12.10;99.90;;;;;;5069878;28;20190;-80
2023/06/08 00:21:49;;;;;;;0.07;0.07;;;12.10;99.90;;;;;;5079312;28;20570;-80
2023/06/08 00:24:19;;;;;;;0.00;0.00;;;12.10;99.90;;;;;;5062178;28;20522;-80
2023/06/08 00:26:44;;;;;;;0.10;0.10;;;12.00;99.90;;;;;;5077758;28;20232;-79
2023/06/08 00:29:10;;;;;;;0.00;0.00;;;11.90;99.90;;;;;;5053617;28;20436;-80
2023/06/08 00:31:37;;;;;;;0.00;0.00;;;11.90;99.90;;;;;;5051897;28;20186;-80
2023/06/08 00:34:03;;;;;;;0.03;0.03;;;11.80;99.90;;;;;;5065593;28;20700;-80
2023/06/08 00:36:29;;;;;;;0.00;0.00;;;11.80;99.90;;;;;;5073092;28;20547;-80
2023/06/08 00:38:54;;;;;;;0.07;0.07;;;11.60;99.90;;;;;;5078971;28;20206;-80
2023/06/08 00:41:20;;;;;;;0.03;0.03;;;11.60;99.90;;;;;;5051714;28;20665;-80
2023/06/08 00:43:45;;;;;;;0.10;0.10;;;11.60;99.90;;;;;;5066253;28;20187;-79
2023/06/08 00:46:13;;;;;;;0.00;0.00;;;11.50;99.90;;;;;;5057469;28;20222;-80
2023/06/08 00:48:40;;;;;;;0.00;0.00;;;11.40;99.90;;;;;;5071830;28;20240;-80
2023/06/08 00:51:06;;;;;;;0.10;0.10;;;11.40;99.90;;;;;;5059106;28;20442;-80
2023/06/08 00:53:33;;;;;;;0.10;0.10;;;11.30;99.90;;;;;;5077157;28;20439;-80
2023/06/08 00:55:59;;;;;;;0.10;0.10;;;11.40;99.90;;;;;;5070931;28;20440;-79
2023/06/08 00:58:25;;;;;;;0.10;0.10;;;11.50;99.90;;;;;;5066316;28;21263;-79
2023/06/08 01:00:59;;;;;;;0.10;0.10;;;11.80;99.90;;;;;;5052238;28;21121;-79
2023/06/08 01:03:35;;;;;;;0.10;0.10;;;11.70;99.90;;;;;;5066898;28;20440;-79
2023/06/08 01:06:02;;;;;;;0.10;0.10;;;11.70;99.90;;;;;;5064588;28;20957;-79
2023/06/08 01:09:05;;;;;;;0.00;0.00;;;11.80;99.90;;;;;;5070352;28;20475;-79
2023/06/08 01:12:02;;;;;;;0.10;0.10;;;11.90;99.90;;;;;;5068166;28;21053;-78
2023/06/08 01:14:27;;;;;;;0.00;0.00;;;11.90;99.90;;;;;;5064696;28;20475;-79
2023/06/08 01:17:00;;;;;;;0.10;0.10;;;11.70;99.90;;;;;;5051062;28;20800;-80
2023/06/08 01:19:52;;;;;;;0.03;0.03;;;11.80;99.90;;;;;;5049168;28;20186;-80
2023/06/08 01:22:33;;;;;;;0.10;0.10;;;11.80;99.90;;;;;;5068502;28;21002;-80
2023/06/08 01:25:00;;;;;;;0.03;0.03;;;11.80;99.90;;;;;;5050598;28;20440;-79
2023/06/08 01:27:29;;;;;;;0.10;0.10;;;11.70;99.90;;;;;;5049825;28;20444;-80
2023/06/08 01:29:54;;;;;;;0.10;0.10;;;11.70;99.90;;;;;;5049597;28;20440;-80
2023/06/08 01:32:20;;;;;;;0.00;0.00;;;11.70;99.90;;;;;;5067638;28;21061;-80
2023/06/08 01:34:46;;;;;;;0.10;0.10;;;11.70;99.90;;;;;;5066539;28;20254;-80
2023/06/08 01:37:58;;;;;;;0.10;0.10;;;11.70;99.90;;;;;;5065717;28;20264;-78
2023/06/08 01:40:34;;;;;;;0.00;0.00;;;11.70;99.90;;;;;;5047234;28;20436;-79
2023/06/08 01:43:01;;;;;;;0.10;0.10;;;11.70;99.90;;;;;;5066263;28;20457;-79
2023/06/08 01:45:32;;;;;;;0.03;0.03;;;11.70;99.90;;;;;;5052540;28;20534;-79
2023/06/08 01:48:02;;;;;;;0.10;0.10;;;11.80;99.90;;;;;;5069418;28;20946;-80
2023/06/08 01:50:29;;;;;;;0.10;0.10;;;11.60;99.90;;;;;;5076493;28;20841;-80
2023/06/08 01:52:55;;;;;;;0.10;0.10;;;11.80;99.90;;;;;;5068777;28;20842;-79
2023/06/08 01:55:22;;;;;;;0.10;0.10;;;11.90;99.90;;;;;;5070071;28;20424;-79
2023/06/08 01:57:48;;;;;;;0.10;0.10;;;11.90;99.90;;;;;;5067440;28;20496;-79
2023/06/08 02:00:16;;;;;;;0.10;0.10;;;11.90;99.90;;;;;;5067833;28;20526;-79
2023/06/08 02:02:42;;;;;;;0.03;0.03;;;11.90;99.90;;;;;;5059038;28;20230;-79
2023/06/08 02:05:12;;;;;;;0.00;0.00;;;11.80;99.90;;;;;;5070670;28;20440;-79
2023/06/08 02:07:38;;;;;;;0.10;0.10;;;11.60;99.90;;;;;;5066719;28;20299;-79
2023/06/08 02:10:06;;;;;;;0.00;0.00;;;11.40;99.90;;;;;;5074195;28;20447;-80
2023/06/08 02:12:31;;;;;;;0.00;0.00;;;11.50;99.90;;;;;;5067137;28;20446;-77
2023/06/08 02:14:57;;;;;;;0.10;0.10;;;11.40;99.90;;;;;;5068534;28;20559;-78
2023/06/08 02:17:33;;;;;;;0.00;0.00;;;11.50;99.90;;;;;;5058367;28;20234;-79
2023/06/08 02:20:00;;;;;;;0.10;0.10;;;11.30;99.90;;;;;;5050311;28;20640;-80
2023/06/08 02:22:28;;;;;;;0.10;0.10;;;11.50;99.90;;;;;;5076219;28;20482;-80
2023/06/08 02:24:53;;;;;;;0.10;0.10;;;11.60;99.90;;;;;;5074483;28;20443;-80
2023/06/08 02:27:19;;;;;;;0.10;0.10;;;11.40;99.90;;;;;;5086804;28;20459;-79
2023/06/08 02:29:44;;;;;;;0.00;0.00;;;11.60;99.90;;;;;;5072029;28;20207;-80
2023/06/08 02:32:10;;;;;;;0.07;0.07;;;11.70;99.90;;;;;;5084527;28;20227;-80
2023/06/08 02:34:37;;;;;;;0.10;0.10;;;11.50;99.90;;;;;;5063155;28;20182;-80
2023/06/08 02:37:04;;;;;;;0.00;0.00;;;11.20;99.90;;;;;;5074785;28;20197;-80
2023/06/08 02:39:30;;;;;;;0.00;0.00;;;11.30;99.90;;;;;;5061981;28;20486;-80
2023/06/08 02:41:55;;;;;;;0.10;0.10;;;11.40;99.90;;;;;;5075766;28;20527;-80
2023/06/08 02:44:21;;;;;;;0.10;0.10;;;11.50;99.90;;;;;;5050355;28;20895;-80
2023/06/08 02:46:47;;;;;;;0.10;0.10;;;11.40;99.90;;;;;;5086875;28;20193;-80
2023/06/08 02:49:12;;;;;;;0.10;0.10;;;11.40;99.90;;;;;;5077922;28;20665;-81
2023/06/08 02:51:38;;;;;;;0.10;0.10;;;11.30;99.90;;;;;;5063746;28;20476;-80
2023/06/08 02:54:03;;;;;;;0.00;0.00;;;11.30;99.90;;;;;;5060347;28;20634;-80
2023/06/08 02:56:29;;;;;;;0.10;0.10;;;11.20;99.90;;;;;;5085366;28;20671;-80
2023/06/08 02:58:56;;;;;;;0.10;0.10;;;11.10;99.90;;;;;;5071158;28;20253;-80
2023/06/08 03:01:23;;;;;;;0.03;0.03;;;11.20;99.90;;;;;;5071779;28;20233;-81
2023/06/08 03:03:51;;;;;;;0.10;0.10;;;11.10;99.90;;;;;;5071721;28;20672;-80
2023/06/08 03:06:18;;;;;;;0.00;0.00;;;11.20;99.90;;;;;;5062820;28;20482;-80
2023/06/08 03:08:53;;;;;;;0.10;0.10;;;11.00;99.90;;;;;;5062303;28;20545;-78
2023/06/08 03:11:22;;;;;;;0.10;0.10;;;11.20;99.90;;;;;;5065949;28;20498;-79
2023/06/08 03:13:48;;;;;;;0.07;0.07;;;11.10;99.90;;;;;;5062866;28;20801;-79
2023/06/08 03:16:14;;;;;;;0.10;0.10;;;11.30;99.90;;;;;;5055415;28;20450;-79
2023/06/08 03:18:41;;;;;;;0.10;0.10;;;11.20;99.90;;;;;;5075235;28;20442;-79
2023/06/08 03:21:12;;;;;;;0.10;0.10;;;11.10;99.90;;;;;;5081557;28;20505;-80
2023/06/08 03:23:38;;;;;;;0.10;0.10;;;11.20;99.90;;;;;;5075071;28;20432;-79
2023/06/08 03:26:04;;;;;;;0.03;0.03;;;11.10;99.90;;;;;;5070896;28;20776;-80
2023/06/08 03:28:29;;;;;;;0.10;0.10;;;11.20;99.90;;;;;;5069138;28;20490;-80
2023/06/08 03:30:55;;;;;;;0.07;0.07;;;11.10;99.90;;;;;;5068774;28;20174;-80
2023/06/08 03:33:21;;;;;;;0.10;0.10;;;11.00;99.90;;;;;;5077727;28;20177;-79
2023/06/08 03:35:47;;;;;;;0.10;0.10;;;10.90;99.90;;;;;;5071432;28;20181;-80
2023/06/08 03:38:13;;;;;;;0.10;0.10;;;11.00;99.90;;;;;;5086043;28;20267;-80
2023/06/08 03:40:38;;;;;;;0.10;0.10;;;10.90;99.90;;;;;;5066807;28;20542;-79
2023/06/08 03:43:04;;;;;;;0.10;0.10;;;11.10;99.90;;;;;;5083594;28;20200;-80
2023/06/08 03:45:30;;;;;;;0.10;0.10;;;11.10;99.90;;;;;;5071867;28;20189;-80
2023/06/08 03:47:55;;;;;;;0.10;0.10;;;11.10;99.90;;;;;;5077176;28;20205;-79
2023/06/08 03:50:22;;;;;;;0.10;0.10;;;11.10;99.90;;;;;;5063156;28;20280;-80
2023/06/08 03:52:47;;;;;;;0.10;0.10;;;11.00;99.90;;;;;;5052675;28;20181;-80
2023/06/08 03:55:13;;;;;;;0.10;0.10;;;11.10;99.90;;;;;;5071818;28;20425;-80
2023/06/08 03:57:39;;;;;;;0.10;0.10;;;11.00;99.90;;;;;;5065297;28;20190;-80
2023/06/08 04:00:11;;;;;;;0.03;0.03;;;11.00;99.90;;;;;;5070109;28;20602;-79
2023/06/08 04:02:40;;;;;;;0.10;0.10;;;11.10;99.90;;;;;;5078808;28;21009;-79
2023/06/08 04:05:06;;;;;;;0.10;0.10;;;11.10;99.90;;;;;;5069003;28;20447;-80
2023/06/08 04:07:34;;;;;;;0.10;0.10;;;11.30;99.90;;;;;;5072627;28;20916;-80
2023/06/08 04:10:01;;;;;;;0.10;0.10;;;11.20;99.90;;;;;;5077419;28;20492;-80
2023/06/08 04:12:26;;;;;;;0.10;0.10;;;11.40;99.90;;;;;;5078896;28;20451;-80
2023/06/08 04:14:52;;;;;;;0.10;0.10;;;11.40;99.90;;;;;;5059549;28;20821;-80
2023/06/08 04:17:18;;;;;;;0.10;0.10;;;11.40;99.90;;;;;;5056746;28;20281;-80
2023/06/08 04:19:43;;;;;;;0.10;0.10;;;11.20;99.90;;;;;;5064867;28;20479;-80
2023/06/08 04:22:09;;;;;;;0.10;0.10;;;11.30;99.90;;;;;;5087981;28;20224;-80
2023/06/08 04:24:36;;;;;;;0.10;0.10;;;11.30;99.90;;;;;;5070884;28;20259;-80
2023/06/08 04:27:02;;;;;;;0.10;0.10;;;11.10;99.90;;;;;;5071504;28;20186;-80
2023/06/08 04:29:27;;;;;;;0.20;0.20;;;11.10;99.90;;;;;;5053421;28;20450;-80
2023/06/08 04:31:53;;;;;;;0.13;0.13;;;11.00;99.90;;;;;;5067239;28;20574;-80
2023/06/08 04:34:18;;;;;;;0.10;0.10;;;11.10;99.90;;;;;;5071056;28;20642;-80
2023/06/08 04:36:44;;;;;;;0.10;0.10;;;11.00;99.90;;;;;;5070794;28;20198;-80
2023/06/08 04:39:09;;;;;;;0.10;0.10;;;11.10;99.90;;;;;;5050338;28;20178;-80
2023/06/08 04:41:36;;;;;;;0.20;0.20;;;11.20;99.90;;;;;;5073773;28;20706;-80
2023/06/08 04:44:02;;;;;;;0.20;0.20;;;11.10;99.90;;;;;;5057357;28;20185;-80
2023/06/08 04:46:33;;;;;;;0.13;0.13;;;11.10;99.90;;;;;;5070716;28;20450;-80
2023/06/08 04:48:59;;;;;;;0.20;0.20;;;11.30;99.90;;;;;;5071760;28;20675;-80
2023/06/08 04:51:29;;;;;;;0.10;0.10;;;11.40;99.90;;;;;;5056014;28;20481;-80
2023/06/08 04:54:04;;;;;;;0.20;0.20;;;11.40;99.90;;;;;;5075270;28;20435;-79
2023/06/08 04:56:33;;;;;;;0.10;0.10;;;11.40;99.90;;;;;;5076758;28;20502;-79
2023/06/08 04:58:59;;;;;;;0.17;0.17;;;11.50;99.90;;;;;;5048749;28;20971;-79
2023/06/08 05:01:26;;;;;;;0.20;0.20;;;11.30;99.90;;;;;;5047140;28;20601;-79
2023/06/08 05:03:51;;;;;;;0.10;0.10;;;11.50;99.90;;;;;;5061738;28;20934;-79
2023/06/08 05:06:17;;;;;;;0.20;0.20;;;11.60;99.90;;;;;;5059632;28;20968;-80
2023/06/08 05:08:42;;;;;;;0.10;0.10;;;11.40;99.90;;;;;;5065066;28;20854;-79
2023/06/08 05:11:09;;;;;;;0.10;0.10;;;11.10;99.90;;;;;;5068268;28;20245;-79
2023/06/08 05:13:35;;;;;;;0.20;0.20;;;11.20;99.90;;;;;;5049838;28;20634;-79
2023/06/08 05:16:01;;;;;;;0.10;0.10;;;11.40;99.90;;;;;;5062964;28;20447;-79
2023/06/08 05:18:28;;;;;;;0.10;0.10;;;11.70;99.90;;;;;;5066591;28;20232;-79
2023/06/08 05:20:53;;;;;;;0.10;0.10;;;11.70;99.90;;;;;;5066144;28;20826;-79
2023/06/08 05:23:19;;;;;;;0.20;0.20;;;11.60;99.90;;;;;;5068992;28;20458;-79
2023/06/08 05:25:44;;;;;;;0.10;0.10;;;11.40;99.90;;;;;;5065122;28;20170;-79
2023/06/08 05:28:10;;;;;;;0.10;0.10;;;11.80;99.90;;;;;;5053752;28;20676;-79
2023/06/08 05:30:35;;;;;;;0.10;0.10;;;11.90;99.90;;;;;;5065519;28;20315;-79
2023/06/08 05:33:01;;;;;;;0.20;0.20;;;12.00;99.90;;;;;;5043410;28;20193;-79
2023/06/08 05:35:27;;;;;;;0.10;0.10;;;11.80;99.90;;;;;;5066064;28;20587;-79
2023/06/08 05:37:52;;;;;;;0.10;0.10;;;12.00;99.90;;;;;;5070135;28;20227;-79
2023/06/08 05:40:18;;;;;;;0.10;0.10;;;12.00;99.90;;;;;;5068917;28;21007;-78
2023/06/08 05:42:44;;;;;;;0.10;0.10;;;12.00;99.90;;;;;;5050004;28;20754;-80
2023/06/08 05:45:11;;;;;;;0.10;0.10;;;12.10;99.90;;;;;;5047338;28;20190;-80
2023/06/08 05:47:37;;;;;;;0.10;0.10;;;11.90;99.90;;;;;;5068644;28;20177;-80
2023/06/08 05:50:03;;;;;;;0.10;0.10;;;11.80;99.90;;;;;;5064818;28;21079;-80
2023/06/08 05:52:29;;;;;;;0.10;0.10;;;12.10;99.90;;;;;;5071427;28;20466;-80
2023/06/08 05:54:55;;;;;;;0.10;0.10;;;12.40;99.90;;;;;;5083777;28;20529;-80
2023/06/08 05:57:21;;;;;;;0.10;0.10;;;12.30;99.90;;;;;;5070037;28;20443;-79
2023/06/08 05:59:46;;;;;;;0.10;0.10;;;12.10;99.90;;;;;;5069205;28;20271;-80
2023/06/08 06:02:13;;;;;;;0.10;0.10;;;12.40;99.90;;;;;;5065609;28;20637;-80
2023/06/08 06:04:38;;;;;;;0.10;0.10;;;12.60;99.90;;;;;;5068971;28;20264;-80
2023/06/08 06:07:05;;;;;;;0.10;0.10;;;12.40;99.90;;;;;;5060583;28;20518;-80
2023/06/08 06:09:31;;;;;;;0.10;0.10;;;12.60;99.90;;;;;;5079046;28;20181;-79
2023/06/08 06:11:57;;;;;;;0.10;0.10;;;12.30;99.90;;;;;;5077525;28;20466;-80
2023/06/08 06:14:22;;;;;;;0.10;0.10;;;12.50;99.90;;;;;;5059021;28;20491;-80
2023/06/08 06:16:48;;;;;;;0.10;0.10;;;12.60;99.90;;;;;;5067526;28;20186;-80
2023/06/08 06:19:13;;;;;;;0.10;0.10;;;12.70;99.90;;;;;;5056334;28;20177;-80
2023/06/08 06:21:40;;;;;;;0.10;0.10;;;12.70;99.90;;;;;;5071286;28;20653;-80
2023/06/08 06:24:06;;;;;;;0.10;0.10;;;12.40;99.90;;;;;;5050226;28;20216;-80
2023/06/08 06:26:31;;;;;;;0.10;0.10;;;12.70;99.90;;;;;;5071628;28;20873;-79
2023/06/08 06:28:57;;;;;;;0.10;0.10;;;12.80;99.90;;;;;;5055128;28;22169;-79
2023/06/08 06:31:22;;;;;;;0.10;0.10;;;12.40;99.90;;;;;;5062852;28;20209;-79
2023/06/08 06:33:48;;;;;;;0.10;0.10;;;12.70;99.90;;;;;;5074710;28;20212;-81
2023/06/08 06:36:13;;;;;;;0.10;0.10;;;12.90;99.90;;;;;;5068397;28;20217;-81
2023/06/08 06:38:39;;;;;;;0.10;0.10;;;13.10;99.90;;;;;;5049372;28;20181;-80
2023/06/08 06:41:04;;;;;;;0.10;0.10;;;13.20;99.90;;;;;;5065355;28;20185;-79
2023/06/08 06:43:30;;;;;;;0.10;0.10;;;13.10;99.90;;;;;;5055472;28;20217;-79
2023/06/08 06:45:55;;;;;;;0.10;0.10;;;12.90;99.90;;;;;;5071759;28;20199;-79
2023/06/08 06:48:22;;;;;;;0.10;0.10;;;13.10;99.90;;;;;;5069541;28;20288;-80
2023/06/08 06:50:48;;;;;;;0.10;0.10;;;13.30;99.90;;;;;;5067629;28;20194;-80
2023/06/08 06:53:14;;;;;;;0.10;0.10;;;13.60;99.90;;;;;;5085405;28;20991;-81
2023/06/08 06:55:40;;;;;;;0.10;0.10;;;13.30;99.90;;;;;;5068184;28;20440;-81
2023/06/08 06:58:06;;;;;;;0.10;0.10;;;13.10;99.90;;;;;;5072562;28;20566;-79
2023/06/08 07:00:37;;;;;;;0.10;0.10;;;13.50;99.90;;;;;;5078637;28;20445;-80
2023/06/08 07:03:04;;;;;;;0.10;0.10;;;13.80;99.90;;;;;;5065491;28;20296;-80
2023/06/08 07:05:29;;;;;;;0.10;0.10;;;13.90;99.90;;;;;;5066632;28;20444;-82
2023/06/08 07:07:55;;;;;;;0.10;0.10;;;13.50;99.90;;;;;;5043585;28;20521;-79
2023/06/08 07:10:21;;;;;;;0.10;0.10;;;13.20;99.90;;;;;;5068954;28;20190;-80
2023/06/08 07:12:47;;;;;;;0.10;0.10;;;13.50;99.90;;;;;;5065862;28;20452;-79
2023/06/08 07:15:13;;;;;;;0.10;0.10;;;13.90;99.90;;;;;;5051713;28;20451;-80
2023/06/08 07:17:39;;;;;;;0.10;0.10;;;14.00;99.90;;;;;;5064609;28;20186;-79
2023/06/08 07:20:05;;;;;;;0.10;0.10;;;13.60;99.90;;;;;;5071623;28;20456;-79
2023/06/08 07:22:31;;;;;;;0.00;0.00;;;13.60;99.90;;;;;;5052286;28;20228;-79
2023/06/08 07:24:56;;;;;;;0.10;0.10;;;13.40;99.90;;;;;;5051960;28;20436;-80
2023/06/08 07:27:22;;;;;;;0.10;0.10;;;13.50;99.90;;;;;;5052003;28;20188;-80
2023/06/08 07:29:47;;;;;;;0.10;0.10;;;13.70;99.90;;;;;;5070906;28;20221;-79
2023/06/08 07:32:13;;;;;;;0.10;0.10;;;13.60;99.90;;;;;;5080112;28;20197;-80
2023/06/08 07:34:39;;;;;;;0.10;0.10;;;13.90;99.90;;;;;;5068431;28;20691;-79
2023/06/08 07:37:05;;;;;;;0.10;0.10;;;14.10;99.90;;;;;;5073237;28;20460;-79
2023/06/08 07:39:31;;;;;;;0.10;0.10;;;14.20;99.90;;;;;;5056355;28;20672;-79
2023/06/08 07:41:56;;;;;;;0.10;0.10;;;14.20;99.90;;;;;;5072759;28;20468;-79
2023/06/08 07:44:22;;;;;;;0.10;0.10;;;14.00;99.90;;;;;;5069999;28;20188;-80
2023/06/08 07:46:48;;;;;;;0.10;0.10;;;13.70;99.90;;;;;;5071506;28;20188;-80
2023/06/08 07:49:13;;;;;;;0.10;0.10;;;14.00;99.90;;;;;;5065436;28;20444;-81
2023/06/08 07:51:39;;;;;;;0.10;0.10;;;14.10;99.90;;;;;;5065882;28;20178;-80
2023/06/08 07:54:04;;;;;;;0.10;0.10;;;14.30;99.90;;;;;;5062118;28;20185;-80
2023/06/08 07:56:30;;;;;;;0.10;0.10;;;14.40;99.90;;;;;;5073191;28;20177;-80
2023/06/08 07:58:55;;;;;;;0.10;0.10;;;14.40;99.90;;;;;;5076750;28;20237;-80
2023/06/08 08:01:22;;;;;;;0.10;0.10;;;14.50;99.90;;;;;;5071191;28;20843;-80
2023/06/08 08:03:47;;;;;;;0.00;0.00;;;14.90;99.90;;;;;;5074125;28;20356;-79
2023/06/08 08:06:13;;;;;;;0.00;0.00;;;14.90;99.90;;;;;;5069521;28;20468;-80
2023/06/08 08:08:39;;;;;;;0.00;0.00;;;14.80;99.90;;;;;;5071642;28;20225;-80
2023/06/08 08:11:04;;;;;;;0.10;0.10;;;14.90;99.90;;;;;;5068784;28;20228;-81
2023/06/08 08:13:30;;;;;;;0.10;0.10;;;14.80;99.90;;;;;;5066531;28;20204;-80
2023/06/08 08:15:55;;;;;;;0.10;0.10;;;14.90;99.90;;;;;;5071810;28;20189;-80
2023/06/08 08:18:21;;;;;;;0.10;0.10;;;14.80;99.90;;;;;;5074937;28;20199;-80
2023/06/08 08:20:46;;;;;;;0.10;0.10;;;15.50;99.90;;;;;;5066816;28;20602;-80
2023/06/08 08:23:12;;;;;;;0.10;0.10;;;15.80;99.90;;;;;;5068382;28;20218;-80
2023/06/08 08:25:38;;;;;;;0.10;0.10;;;15.60;99.90;;;;;;5067814;28;20208;-79
2023/06/08 08:28:03;;;;;;;0.10;0.10;;;16.00;99.90;;;;;;5045506;28;20195;-80
2023/06/08 08:30:30;;;;;;;0.10;0.10;;;15.80;99.90;;;;;;5071777;28;20919;-80
2023/06/08 08:32:56;;;;;;;0.10;0.10;;;15.70;99.90;;;;;;5073981;28;20744;-81
2023/06/08 08:35:24;;;;;;;0.10;0.10;;;15.80;99.90;;;;;;5065935;28;20523;-79
2023/06/08 08:37:50;;;;;;;0.00;0.00;;;16.00;99.90;;;;;;5081630;28;20181;-83
2023/06/08 08:40:16;;;;;;;0.00;0.00;;;15.80;99.90;;;;;;5057699;28;20522;-82
2023/06/08 08:42:45;;;;;;;0.00;0.00;;;16.00;99.90;;;;;;5065312;28;20637;-81
2023/06/08 08:45:14;;;;;;;0.00;0.00;;;16.20;99.90;;;;;;5067204;28;20727;-82
2023/06/08 08:47:41;;;;;;;0.00;0.00;;;16.80;99.90;;;;;;5061657;28;20474;-83
2023/06/08 08:50:09;;;;;;;0.00;0.00;;;16.70;99.90;;;;;;5061423;28;20805;-81
2023/06/08 08:52:38;;;;;;;0.00;0.00;;;16.60;99.90;;;;;;5071632;28;20442;-82
2023/06/08 08:55:05;;;;;;;0.00;0.00;;;16.90;99.90;;;;;;5066762;28;20844;-82
2023/06/08 08:57:31;;;;;;;0.00;0.00;;;17.10;99.90;;;;;;5049488;28;20543;-83
2023/06/08 08:59:58;;;;;;;0.00;0.00;;;16.90;99.90;;;;;;5078725;28;20439;-81
2023/06/08 09:02:24;;;;;;;0.00;0.00;;;17.10;99.90;;;;;;5052440;28;20476;-81
2023/06/08 09:04:51;;;;;;;0.00;0.00;;;17.60;99.90;;;;;;5071524;28;20578;-82
2023/06/08 09:07:19;;;;;;;0.00;0.00;;;17.90;99.90;;;;;;5066214;28;20459;-82
2023/06/08 09:10:18;;;;;;;0.00;0.00;;;18.20;99.90;;;;;;5051039;28;20458;-82
2023/06/08 09:12:48;;;;;;;0.00;0.00;;;18.10;99.90;;;;;;5048693;28;20642;-81
2023/06/08 09:15:28;;;;;;;0.00;0.00;;;18.10;99.90;;;;;;5065856;28;20432;-82
2023/06/08 09:17:54;;;;;;;0.00;0.00;;;18.50;99.90;;;;;;5072364;28;20951;-81
2023/06/08 09:20:33;;;;;;;0.00;0.00;;;18.80;99.90;;;;;;5052596;28;20439;-82
2023/06/08 09:23:20;;;;;;;0.00;0.00;;;18.70;99.90;;;;;;5053793;28;20480;-82
2023/06/08 09:25:47;;;;;;;0.00;0.00;;;19.10;99.90;;;;;;5065622;28;20440;-82
2023/06/08 09:28:25;;;;;;;0.00;0.00;;;18.70;99.90;;;;;;5072266;28;20500;-82
2023/06/08 09:30:52;;;;;;;0.00;0.00;;;18.90;99.90;;;;;;5069667;28;20421;-82
2023/06/08 09:33:26;;;;;;;0.00;0.00;;;18.90;99.90;;;;;;5068227;28;21314;-82
2023/06/08 09:36:15;;;;;;;0.00;0.00;;;18.90;99.90;;;;;;5068282;28;20499;-82
2023/06/08 09:38:42;;;;;;;0.00;0.00;;;19.00;99.90;;;;;;5062730;28;20803;-82
2023/06/08 09:41:19;;;;;;;0.00;0.00;;;19.40;99.90;;;;;;5077666;28;20531;-81
2023/06/08 09:43:47;;;;;;;0.00;0.00;;;20.10;99.90;;;;;;5075924;28;20854;-82
2023/06/08 09:46:16;;;;;;;0.00;0.00;;;20.30;99.90;;;;;;5058698;28;20448;-82
2023/06/08 09:48:56;;;;;;;0.00;0.00;;;20.60;99.90;;;;;;5061051;28;20474;-82
2023/06/08 09:51:23;;;;;;;0.00;0.00;;;20.80;99.90;;;;;;5047551;28;20529;-81
2023/06/08 09:53:57;;;;;;;0.00;0.00;;;20.90;99.90;;;;;;5065321;28;20432;-82
2023/06/08 09:56:25;;;;;;;0.00;0.00;;;20.30;99.90;;;;;;5049591;28;20451;-82
2023/06/08 09:58:53;;;;;;;0.00;0.00;;;20.60;99.90;;;;;;5067702;28;20566;-82
2023/06/08 10:01:23;;;;;;;0.00;0.00;;;20.10;99.90;;;;;;5070200;28;20467;-82
2023/06/08 10:03:52;;;;;;;0.00;0.00;;;20.50;99.90;;;;;;5070303;28;20940;-82
2023/06/08 10:06:19;;;;;;;0.00;0.00;;;20.80;99.90;;;;;;5074614;28;20450;-82
2023/06/08 10:08:50;;;;;;;0.00;0.00;;;20.60;99.90;;;;;;5056586;28;20465;-82
2023/06/08 10:11:16;;;;;;;0.00;0.00;;;21.10;99.90;;;;;;5066923;28;20440;-82
2023/06/08 10:13:42;;;;;;;0.00;0.00;;;21.80;99.90;;;;;;5073073;28;20432;-82
2023/06/08 10:16:08;;;;;;;0.00;0.00;;;21.90;99.90;;;;;;5066867;28;20190;-81
2023/06/08 10:18:35;;;;;;;0.00;0.00;;;21.80;99.90;;;;;;5077550;28;20531;-81
2023/06/08 10:21:04;;;;;;;0.00;0.00;;;21.80;99.90;;;;;;5073047;28;20439;-82
2023/06/08 10:23:31;;;;;;;0.00;0.00;;;22.20;99.90;;;;;;5072767;28;20444;-81
2023/06/08 10:25:57;;;;;;;0.00;0.00;;;22.10;99.90;;;;;;5075766;28;20428;-81
2023/06/08 10:28:23;;;;;;;0.00;0.00;;;22.20;99.90;;;;;;5063610;28;20448;-80
2023/06/08 10:30:48;;;;;;;0.00;0.00;;;23.00;99.90;;;;;;5069710;28;20494;-81
2023/06/08 10:33:16;;;;;;;0.00;0.00;;;22.90;99.90;;;;;;5069298;28;20209;-82
2023/06/08 10:36:01;;;;;;;0.00;0.00;;;22.90;99.90;;;;;;5066559;28;20665;-81
2023/06/08 10:38:26;;;;;;;0.00;0.00;;;23.50;99.90;;;;;;5069985;28;20432;-81
2023/06/08 10:40:52;;;;;;;0.00;0.00;;;23.40;99.90;;;;;;5084503;28;20427;-81
2023/06/08 10:43:22;;;;;;;0.00;0.00;;;23.90;99.90;;;;;;5073784;28;20316;-81
2023/06/08 10:45:50;;;;;;;0.00;0.00;;;23.30;99.90;;;;;;5049076;28;20281;-83
2023/06/08 10:48:18;;;;;;;0.00;0.00;;;23.00;99.90;;;;;;5071438;28;20513;-81
2023/06/08 10:50:45;;;;;;;0.00;0.00;;;23.10;99.90;;;;;;5068321;28;20448;-80
2023/06/08 10:53:11;;;;;;;0.00;0.00;;;23.50;99.90;;;;;;5066221;28;20452;-81
2023/06/08 10:55:37;;;;;;;0.00;0.00;;;23.60;99.90;;;;;;5072491;28;20444;-80
2023/06/08 10:58:15;;;;;;;0.00;0.00;;;23.70;99.90;;;;;;5065950;28;20476;-80
2023/06/08 11:00:42;;;;;;;0.00;0.00;;;24.20;99.90;;;;;;5068381;28;20763;-80
2023/06/08 11:03:10;;;;;;;0.00;0.00;;;24.50;99.90;;;;;;5070890;28;20514;-80
2023/06/08 11:05:37;;;;;;;0.00;0.00;;;24.00;99.90;;;;;;5067020;28;20484;-81
2023/06/08 11:08:06;;;;;;;0.00;0.00;;;24.80;99.90;;;;;;5072222;28;20449;-81
2023/06/08 11:10:32;;;;;;;0.00;0.00;;;25.70;99.90;;;;;;5051410;28;20801;-83
2023/06/08 11:13:05;;;;;;;0.00;0.00;;;25.90;99.40;;;;;;5073797;28;20424;-80
2023/06/08 11:15:31;;;;;;;0.00;0.00;;;25.30;99.30;;;;;;5069779;28;20672;-81
2023/06/08 11:17:57;;;;;;;0.00;0.00;;;26.00;99.90;;;;;;5064887;28;20440;-81
2023/06/08 11:20:29;;;;;;;0.00;0.00;;;26.30;99.90;;;;;;5069934;28;20261;-81
2023/06/08 11:22:55;;;;;;;0.00;0.00;;;26.90;99.60;;;;;;5078847;28;20224;-81
2023/06/08 11:25:22;;;;;;;0.00;0.00;;;27.00;96.80;;;;;;5081848;28;20751;-81
2023/06/08 11:27:52;;;;;;;0.00;0.00;;;27.40;97.00;;;;;;5059114;28;20189;-78
2023/06/08 11:30:20;;;;;;;0.00;0.00;;;27.50;96.00;;;;;;5071083;28;20440;-80
2023/06/08 11:32:47;;;;;;;0.00;0.00;;;26.50;93.60;;;;;;5074141;28;20981;-80
2023/06/08 11:35:13;;;;;;;0.00;0.00;;;26.00;95.20;;;;;;5061566;28;20452;-80
2023/06/08 11:37:41;;;;;;;0.00;0.00;;;26.40;96.00;;;;;;5071644;28;21017;-81
2023/06/08 11:40:11;;;;;;;0.00;0.00;;;27.00;94.90;;;;;;5072563;28;20180;-81
2023/06/08 11:42:37;;;;;;;0.00;0.00;;;26.50;94.40;;;;;;5071835;28;20475;-81
2023/06/08 11:45:04;;;;;;;0.00;0.00;;;26.50;94.60;;;;;;5053413;28;20443;-79
2023/06/08 11:47:32;;;;;;;0.00;0.00;;;27.10;94.90;;;;;;5077265;28;20981;-79
2023/06/08 11:50:03;;;;;;;0.00;0.00;;;28.20;92.70;;;;;;5073204;28;20424;-80
2023/06/08 11:52:30;;;;;;;0.00;0.00;;;28.00;92.40;;;;;;5068651;28;20452;-79
2023/06/08 11:55:01;;;;;;;0.00;0.00;;;27.70;92.70;;;;;;5073037;28;20415;-80
2023/06/08 11:57:41;;;;;;;0.00;0.00;;;28.00;93.10;;;;;;5054406;28;20420;-77
2023/06/08 12:00:15;;;;;;;0.00;0.00;;;28.10;94.20;;;;;;5056392;28;20455;-77
2023/06/08 12:02:41;;;;;;;0.00;0.00;;;28.60;93.60;;;;;;5072390;28;20958;-78
2023/06/08 12:05:15;;;;;;;0.00;0.00;;;28.20;91.40;;;;;;5066345;28;20489;-77
2023/06/08 12:07:56;;;;;;;0.00;0.00;;;28.80;92.30;;;;;;5070000;28;20178;-76
2023/06/08 12:10:24;;;;;;;0.00;0.00;;;28.90;92.20;;;;;;5072881;28;20436;-76
2023/06/08 12:12:50;;;;;;;0.00;0.00;;;28.30;93.10;;;;;;5058402;28;20520;-79
2023/06/08 12:15:17;;;;;;;0.00;0.00;;;27.90;91.90;;;;;;5074496;28;20986;-78
2023/06/08 12:17:43;;;;;;;0.00;0.00;;;28.20;92.50;;;;;;5068025;28;20440;-80
2023/06/08 12:20:13;;;;;;;0.00;0.00;;;27.10;92.80;;;;;;5067124;28;20622;-82
2023/06/08 12:22:39;;;;;;;0.00;0.00;;;28.20;93.60;;;;;;5083624;28;20503;-77
2023/06/08 12:25:05;;;;;;;0.00;0.00;;;29.00;93.20;;;;;;5064637;28;20431;-77
2023/06/08 12:27:36;;;;;;;0.00;0.00;;;29.30;92.70;;;;;;5089898;28;20193;-78
2023/06/08 12:30:05;;;;;;;0.00;0.00;;;28.20;91.70;;;;;;5058810;28;20497;-79
2023/06/08 12:32:32;;;;;;;0.00;0.00;;;27.90;91.20;;;;;;5073197;28;20537;-79
2023/06/08 12:34:59;;;;;;;0.00;0.00;;;28.60;92.70;;;;;;5065004;28;20439;-78
2023/06/08 12:37:25;;;;;;;0.00;0.00;;;28.70;92.30;;;;;;5052829;28;20550;-78
2023/06/08 12:39:52;;;;;;;0.00;0.00;;;28.30;92.00;;;;;;5071047;28;20535;-77
2023/06/08 12:42:18;;;;;;;0.00;0.00;;;28.80;93.30;;;;;;5071400;28;20229;-79
2023/06/08 12:44:44;;;;;;;0.00;0.00;;;28.70;91.00;;;;;;5074661;28;20443;-78
2023/06/08 12:47:10;;;;;;;0.00;0.00;;;29.30;91.90;;;;;;5070847;28;20440;-78
2023/06/08 12:49:35;;;;;;;0.00;0.00;;;29.30;90.80;;;;;;5074810;28;20188;-75
2023/06/08 12:52:01;;;;;;;0.00;0.00;;;29.50;90.10;;;;;;5073156;28;20444;-76